Time;durP1;ratioP1;P1;durP2;ratioP2;P2;SDS_P1;SDS_P2;PMS_P1;PMS_P2;Temp;Humidity;BMP_temperature;BMP_pressure;BME280_temperature;BME280_humidity;BME280_pressure;Samples;Min_cycle;Max_cycle;Signal;HPM_P1;HPM_P2
2023/01/01 00:00:00;;;;;;;;;;;14.30;96.70;;;;;;5085656;28;20269;-66
2023/01/01 00:02:26;;;;;;;;;;;14.40;96.60;;;;;;5088393;28;19916;-66
2023/01/01 00:04:51;;;;;;;;;;;14.50;96.90;;;;;;5072912;28;19912;-70
2023/01/01 00:07:17;;;;;;;;;;;14.60;96.60;;;;;;5088571;28;19961;-65
2023/01/01 00:12:26;;;;;;;;;;;14.70;96.80;;;;;;5087478;28;19977;-67
2023/01/01 00:14:52;;;;;;;;;;;14.70;96.70;;;;;;5085017;28;19955;-70
2023/01/01 00:17:17;;;;;;;;;;;14.80;97.30;;;;;;5086804;28;20012;-69
2023/01/01 00:19:43;;;;;;;;;;;14.80;97.30;;;;;;5088111;28;19923;-66
2023/01/01 00:22:08;;;;;;;;;;;14.80;97.40;;;;;;5087519;28;20003;-67
2023/01/01 00:24:34;;;;;;;;;;;14.90;97.60;;;;;;5087656;28;19919;-68
2023/01/01 00:26:59;;;;;;;;;;;14.90;97.70;;;;;;5088168;28;19912;-67
2023/01/01 00:29:25;;;;;;;;;;;14.90;97.60;;;;;;5087215;28;20451;-70
2023/01/01 00:31:50;;;;;;;;;;;14.90;97.90;;;;;;5087773;28;19912;-70
2023/01/01 00:34:16;;;;;;;;;;;14.90;97.10;;;;;;5087831;28;20790;-68
2023/01/01 00:36:41;;;;;;;;;;;15.00;97.80;;;;;;5083387;28;19923;-68
2023/01/01 00:39:06;;;;;;;;;;;15.00;97.50;;;;;;5080205;28;19920;-73
2023/01/01 00:41:32;;;;;;;;;;;15.00;97.30;;;;;;5086265;28;19916;-70
2023/01/01 00:43:57;;;;;;;;;;;14.90;96.80;;;;;;5085493;28;19916;-67
2023/01/01 00:46:23;;;;;;;;;;;14.90;96.70;;;;;;5087166;28;19908;-67
2023/01/01 00:48:48;;;;;;;;;;;14.90;97.70;;;;;;5085205;28;19919;-67
2023/01/01 00:51:14;;;;;;;;;;;14.90;97.70;;;;;;5087241;28;20337;-67
2023/01/01 00:53:39;;;;;;;;;;;14.90;97.90;;;;;;5087722;28;19908;-67
2023/01/01 00:56:05;;;;;;;;;;;14.90;97.60;;;;;;5065585;28;19919;-69
2023/01/01 00:58:31;;;;;;;;;;;14.90;97.00;;;;;;5069372;28;19971;-67
2023/01/01 01:00:56;;;;;;;;;;;14.90;97.00;;;;;;5085696;28;19919;-71
2023/01/01 01:03:28;;;;;;;;;;;14.80;97.00;;;;;;5067752;28;19912;-70
2023/01/01 01:05:53;;;;;;;;;;;14.80;97.30;;;;;;5048903;28;19913;-70
2023/01/01 01:08:19;;;;;;;;;;;14.70;97.00;;;;;;5066842;28;20435;-68
2023/01/01 01:10:44;;;;;;;;;;;14.70;96.50;;;;;;5070206;28;19912;-69
2023/01/01 01:13:10;;;;;;;;;;;14.70;96.90;;;;;;5083021;28;19923;-68
2023/01/01 01:15:36;;;;;;;;;;;14.70;96.70;;;;;;5085511;28;19915;-69
2023/01/01 01:18:02;;;;;;;;;;;14.70;96.90;;;;;;5086843;28;20590;-68
2023/01/01 01:20:27;;;;;;;;;;;14.70;97.30;;;;;;5080786;28;19912;-68
2023/01/01 01:22:53;;;;;;;;;;;14.70;97.60;;;;;;5066169;28;20294;-67
2023/01/01 01:25:18;;;;;;;;;;;14.70;96.90;;;;;;5079145;28;19991;-68
2023/01/01 01:27:44;;;;;;;;;;;14.70;97.30;;;;;;5083861;28;19920;-68
2023/01/01 01:30:09;;;;;;;;;;;14.70;97.20;;;;;;5085656;28;20482;-68
2023/01/01 01:32:35;;;;;;;;;;;14.70;97.30;;;;;;5085312;28;19912;-69
2023/01/01 01:35:00;;;;;;;;;;;14.70;97.20;;;;;;5085795;28;19982;-69
2023/01/01 01:37:26;;;;;;;;;;;14.70;97.50;;;;;;5079082;28;20729;-69
2023/01/01 01:39:51;;;;;;;;;;;14.70;97.10;;;;;;5084965;28;20556;-68
2023/01/01 01:42:17;;;;;;;;;;;14.60;97.50;;;;;;5085321;28;19916;-69
2023/01/01 01:44:45;;;;;;;;;;;14.50;96.80;;;;;;5085341;28;19918;-69
2023/01/01 01:47:14;;;;;;;;;;;14.40;97.00;;;;;;5084754;28;20349;-68
2023/01/01 01:49:39;;;;;;;;;;;14.30;97.50;;;;;;5084973;28;19912;-68
2023/01/01 01:52:05;;;;;;;;;;;14.30;97.60;;;;;;5080382;28;19912;-68
2023/01/01 01:54:30;;;;;;;;;;;14.20;97.00;;;;;;5084252;28;19994;-68
2023/01/01 01:57:04;;;;;;;;;;;14.20;98.00;;;;;;5085677;28;19912;-69
2023/01/01 01:59:31;;;;;;;;;;;14.10;97.80;;;;;;5067417;28;19923;-68
2023/01/01 02:01:58;;;;;;;;;;;14.10;97.60;;;;;;5085578;28;19919;-68
2023/01/01 02:04:23;;;;;;;;;;;14.10;98.00;;;;;;5084847;28;19912;-68
2023/01/01 02:06:50;;;;;;;;;;;14.00;97.80;;;;;;5085516;28;20010;-69
2023/01/01 02:09:15;;;;;;;;;;;14.00;98.10;;;;;;5085765;28;19919;-68
2023/01/01 02:11:41;;;;;;;;;;;14.00;98.10;;;;;;5085589;28;19912;-69
2023/01/01 02:14:06;;;;;;;;;;;13.90;98.10;;;;;;5085644;28;19920;-68
2023/01/01 02:16:55;;;;;;;;;;;13.90;98.40;;;;;;5085438;28;19908;-69
2023/01/01 02:19:20;;;;;;;;;;;13.80;98.40;;;;;;5085109;28;19916;-68
2023/01/01 02:21:46;;;;;;;;;;;13.80;98.80;;;;;;5084658;28;20754;-68
2023/01/01 02:24:14;;;;;;;;;;;13.80;98.70;;;;;;5085730;28;19916;-68
2023/01/01 02:26:51;;;;;;;;;;;13.80;98.70;;;;;;5086877;28;19912;-68
2023/01/01 02:29:55;;;;;;;;;;;13.70;98.70;;;;;;5090277;28;20336;-70
2023/01/01 02:32:26;;;;;;;;;;;13.70;98.70;;;;;;5025671;28;19928;-68
2023/01/01 02:37:53;;;;;;;;;;;13.60;98.60;;;;;;5071630;28;20045;-68
2023/01/01 02:40:20;;;;;;;;;;;13.60;98.70;;;;;;5089355;28;20363;-69
2023/01/01 02:42:46;;;;;;;;;;;13.60;98.60;;;;;;5071226;28;19916;-69
2023/01/01 02:45:12;;;;;;;;;;;13.60;98.80;;;;;;5090435;28;19912;-68
2023/01/01 02:47:37;;;;;;;;;;;13.50;98.80;;;;;;5089888;28;19934;-68
2023/01/01 02:50:07;;;;;;;;;;;13.50;98.60;;;;;;5089398;28;19959;-68
2023/01/01 02:52:38;;;;;;;;;;;13.50;98.80;;;;;;5089646;28;19962;-68
2023/01/01 02:55:15;;;;;;;;;;;13.50;98.90;;;;;;5089270;28;19994;-69
2023/01/01 02:57:53;;;;;;;;;;;13.40;98.90;;;;;;5089771;28;19912;-69
2023/01/01 03:00:30;;;;;;;;;;;13.40;98.90;;;;;;5072198;28;20426;-70
2023/01/01 03:03:14;;;;;;;;;;;13.40;98.90;;;;;;5090233;28;19962;-68
2023/01/01 03:08:38;;;;;;;;;;;13.30;98.80;;;;;;5089718;28;19919;-69
2023/01/01 03:11:06;;;;;;;;;;;13.30;98.80;;;;;;5089427;28;19916;-69
2023/01/01 03:13:38;;;;;;;;;;;13.30;98.90;;;;;;5088946;28;19920;-69
2023/01/01 03:16:09;;;;;;;;;;;13.30;98.60;;;;;;5089730;28;19912;-68
2023/01/01 03:18:43;;;;;;;;;;;13.20;98.80;;;;;;5089501;28;20322;-68
2023/01/01 03:21:09;;;;;;;;;;;13.20;98.80;;;;;;5089547;28;19912;-68
2023/01/01 03:23:37;;;;;;;;;;;13.20;98.50;;;;;;5089314;28;19908;-68
2023/01/01 03:26:05;;;;;;;;;;;13.20;98.60;;;;;;5089664;28;19920;-67
2023/01/01 03:28:33;;;;;;;;;;;13.20;98.90;;;;;;5089341;28;20252;-68
2023/01/01 03:30:59;;;;;;;;;;;13.10;98.80;;;;;;5071009;28;19908;-69
2023/01/01 03:33:29;;;;;;;;;;;13.10;98.90;;;;;;5071376;28;19912;-69
2023/01/01 03:36:13;;;;;;;;;;;13.10;98.80;;;;;;5083658;28;19994;-69
2023/01/01 03:38:41;;;;;;;;;;;13.10;98.80;;;;;;5078167;28;19916;-68
2023/01/01 03:41:09;;;;;;;;;;;13.00;98.80;;;;;;5087897;28;19912;-69
2023/01/01 03:43:48;;;;;;;;;;;13.00;98.80;;;;;;5088339;28;19923;-68
2023/01/01 03:46:15;;;;;;;;;;;13.00;98.90;;;;;;5088091;28;19912;-68
2023/01/01 03:48:56;;;;;;;;;;;13.00;98.90;;;;;;5088898;28;19912;-68
2023/01/01 03:51:36;;;;;;;;;;;13.00;98.80;;;;;;5088636;28;20699;-69
2023/01/01 03:54:06;;;;;;;;;;;13.00;98.90;;;;;;5083435;28;19912;-68
2023/01/01 03:56:35;;;;;;;;;;;13.00;98.80;;;;;;5088703;28;19919;-68
2023/01/01 03:59:06;;;;;;;;;;;13.00;98.70;;;;;;5070620;28;19923;-69
2023/01/01 04:01:33;;;;;;;;;;;13.00;98.80;;;;;;5088540;28;20521;-68
2023/01/01 04:04:00;;;;;;;;;;;12.90;98.80;;;;;;5087911;28;19911;-68
2023/01/01 04:06:25;;;;;;;;;;;12.90;98.80;;;;;;5088846;28;20553;-68
2023/01/01 04:08:52;;;;;;;;;;;12.90;98.80;;;;;;5070338;28;19995;-68
2023/01/01 04:14:05;;;;;;;;;;;12.90;98.90;;;;;;5088517;28;19950;-68
2023/01/01 04:16:30;;;;;;;;;;;12.90;98.80;;;;;;5088332;28;19952;-68
2023/01/01 04:18:56;;;;;;;;;;;12.90;98.80;;;;;;5088216;28;19928;-68
2023/01/01 04:21:21;;;;;;;;;;;12.90;98.90;;;;;;5087349;28;19912;-68
2023/01/01 04:23:47;;;;;;;;;;;12.90;98.90;;;;;;5087965;28;19908;-68
2023/01/01 04:26:13;;;;;;;;;;;12.80;98.80;;;;;;5088191;28;20015;-69
2023/01/01 04:28:39;;;;;;;;;;;12.80;98.70;;;;;;5088155;28;19912;-69
2023/01/01 04:31:04;;;;;;;;;;;12.80;98.80;;;;;;5087663;28;19985;-68
2023/01/01 04:33:29;;;;;;;;;;;12.80;99.00;;;;;;5088300;28;19912;-68
2023/01/01 04:35:55;;;;;;;;;;;12.80;98.80;;;;;;5087967;28;20030;-68
2023/01/01 04:38:20;;;;;;;;;;;12.80;98.80;;;;;;5087539;28;19942;-68
2023/01/01 04:40:56;;;;;;;;;;;12.80;98.70;;;;;;5087424;28;20675;-68
2023/01/01 04:43:21;;;;;;;;;;;12.80;98.80;;;;;;5087612;28;20438;-68
2023/01/01 04:45:54;;;;;;;;;;;12.80;98.70;;;;;;5087047;28;19916;-69
2023/01/01 04:48:19;;;;;;;;;;;12.70;98.70;;;;;;5087173;28;20520;-68
2023/01/01 04:50:52;;;;;;;;;;;12.70;98.60;;;;;;5087293;28;19915;-68
2023/01/01 04:53:17;;;;;;;;;;;12.70;98.60;;;;;;5080325;28;19923;-68
2023/01/01 04:55:43;;;;;;;;;;;12.70;98.70;;;;;;5087565;28;19912;-68
2023/01/01 04:58:08;;;;;;;;;;;12.70;98.60;;;;;;5087551;28;19908;-69
2023/01/01 05:00:34;;;;;;;;;;;12.70;98.80;;;;;;5087311;28;20663;-69
2023/01/01 05:02:59;;;;;;;;;;;12.70;98.80;;;;;;5087905;28;19908;-68
2023/01/01 05:05:25;;;;;;;;;;;12.70;98.80;;;;;;5088086;28;19908;-68
2023/01/01 05:07:50;;;;;;;;;;;12.70;98.80;;;;;;5087829;28;19908;-69
2023/01/01 05:10:15;;;;;;;;;;;12.70;98.80;;;;;;5087074;28;20365;-69
2023/01/01 05:12:41;;;;;;;;;;;12.70;98.60;;;;;;5069124;28;19916;-68
2023/01/01 05:15:07;;;;;;;;;;;12.70;98.60;;;;;;5087568;28;19919;-68
2023/01/01 05:17:32;;;;;;;;;;;12.70;98.70;;;;;;5087351;28;19912;-68
2023/01/01 05:19:59;;;;;;;;;;;12.60;98.60;;;;;;5087289;28;20539;-68
2023/01/01 05:22:24;;;;;;;;;;;12.60;98.60;;;;;;5087342;28;20379;-68
2023/01/01 05:24:50;;;;;;;;;;;12.60;98.70;;;;;;5087313;28;20008;-69
2023/01/01 05:27:15;;;;;;;;;;;12.60;98.70;;;;;;5082309;28;19908;-68
2023/01/01 05:29:41;;;;;;;;;;;12.60;98.70;;;;;;5086383;28;19973;-69
2023/01/01 05:32:06;;;;;;;;;;;12.60;98.70;;;;;;5087128;28;19919;-68
2023/01/01 05:34:32;;;;;;;;;;;12.60;98.80;;;;;;5087315;28;19912;-69
2023/01/01 05:36:57;;;;;;;;;;;12.60;98.70;;;;;;5087291;28;19912;-68
2023/01/01 05:39:23;;;;;;;;;;;12.60;98.80;;;;;;5086937;28;19916;-68
2023/01/01 05:41:48;;;;;;;;;;;12.60;98.80;;;;;;5086696;28;19915;-69
2023/01/01 05:44:15;;;;;;;;;;;12.50;98.80;;;;;;5086727;28;19912;-69
2023/01/01 05:46:40;;;;;;;;;;;12.60;98.80;;;;;;5087030;28;20538;-68
2023/01/01 05:49:08;;;;;;;;;;;12.50;98.90;;;;;;5087160;28;19912;-68
2023/01/01 05:51:34;;;;;;;;;;;12.50;98.90;;;;;;5085165;28;19923;-68
2023/01/01 05:53:59;;;;;;;;;;;12.50;98.90;;;;;;5081265;28;19912;-68
2023/01/01 05:56:25;;;;;;;;;;;12.50;98.90;;;;;;5086793;28;19948;-68
2023/01/01 05:58:51;;;;;;;;;;;12.50;98.90;;;;;;5086255;28;20432;-68
2023/01/01 06:01:24;;;;;;;;;;;12.50;98.80;;;;;;5086727;28;19912;-68
2023/01/01 06:03:50;;;;;;;;;;;12.50;99.00;;;;;;5090974;28;19991;-68
2023/01/01 06:06:16;;;;;;;;;;;12.50;98.80;;;;;;5090960;28;20348;-69
2023/01/01 06:08:47;;;;;;;;;;;12.50;98.80;;;;;;5090850;28;20481;-68
2023/01/01 06:11:12;;;;;;;;;;;12.50;98.90;;;;;;5090829;28;19908;-68
2023/01/01 06:13:38;;;;;;;;;;;12.50;98.80;;;;;;5090616;28;19927;-68
2023/01/01 06:16:03;;;;;;;;;;;12.50;98.80;;;;;;5090435;28;19912;-68
2023/01/01 06:18:30;;;;;;;;;;;12.50;98.90;;;;;;5090404;28;19916;-68
2023/01/01 06:21:02;;;;;;;;;;;12.50;98.80;;;;;;5071941;28;19919;-68
2023/01/01 06:23:27;;;;;;;;;;;12.40;99.20;;;;;;5090824;28;20053;-68
2023/01/01 06:25:53;;;;;;;;;;;12.40;98.90;;;;;;5090676;28;20503;-68
2023/01/01 06:28:18;;;;;;;;;;;12.40;99.00;;;;;;5090418;28;19919;-68
2023/01/01 06:30:44;;;;;;;;;;;12.40;98.90;;;;;;5089612;28;20432;-68
2023/01/01 06:33:09;;;;;;;;;;;12.40;99.00;;;;;;5090017;28;19915;-68
2023/01/01 06:35:35;;;;;;;;;;;12.40;99.00;;;;;;5090127;28;20007;-68
2023/01/01 06:38:00;;;;;;;;;;;12.40;98.90;;;;;;5071949;28;20256;-68
2023/01/01 06:40:25;;;;;;;;;;;12.40;99.00;;;;;;5090305;28;19912;-68
2023/01/01 06:42:51;;;;;;;;;;;12.40;99.00;;;;;;5090189;28;20596;-68
2023/01/01 06:45:16;;;;;;;;;;;12.40;98.90;;;;;;5072343;28;20003;-68
2023/01/01 06:47:42;;;;;;;;;;;12.30;98.90;;;;;;5090046;28;19989;-68
2023/01/01 06:50:07;;;;;;;;;;;12.30;99.00;;;;;;5089387;28;19991;-68
2023/01/01 06:52:33;;;;;;;;;;;12.30;98.90;;;;;;5089355;28;20500;-68
2023/01/01 06:54:58;;;;;;;;;;;12.30;98.90;;;;;;5089923;28;19976;-68
2023/01/01 06:57:24;;;;;;;;;;;12.30;98.90;;;;;;5089951;28;19916;-68
2023/01/01 06:59:49;;;;;;;;;;;12.30;98.80;;;;;;5089489;28;19913;-68
2023/01/01 07:02:15;;;;;;;;;;;12.30;98.90;;;;;;5089796;28;19940;-68
2023/01/01 07:04:40;;;;;;;;;;;12.30;98.80;;;;;;5089852;28;19912;-68
2023/01/01 07:07:06;;;;;;;;;;;12.30;98.80;;;;;;5089303;28;19947;-68
2023/01/01 07:09:31;;;;;;;;;;;12.30;98.80;;;;;;5089786;28;19995;-68
2023/01/01 07:11:57;;;;;;;;;;;12.20;98.80;;;;;;5089913;28;20018;-68
2023/01/01 07:14:22;;;;;;;;;;;12.30;99.10;;;;;;5089928;28;19973;-68
2023/01/01 07:16:48;;;;;;;;;;;12.30;98.90;;;;;;5089750;28;19920;-68
2023/01/01 07:19:13;;;;;;;;;;;12.20;98.90;;;;;;5089977;28;19917;-68
2023/01/01 07:21:43;;;;;;;;;;;12.30;98.90;;;;;;5089591;28;19915;-68
2023/01/01 07:24:11;;;;;;;;;;;12.20;98.90;;;;;;5088963;28;19908;-68
2023/01/01 07:26:36;;;;;;;;;;;12.20;98.90;;;;;;5089459;28;19915;-68
2023/01/01 07:29:02;;;;;;;;;;;12.20;99.00;;;;;;5089486;28;19916;-68
2023/01/01 07:31:27;;;;;;;;;;;12.20;98.90;;;;;;5089198;28;19912;-68
2023/01/01 07:33:53;;;;;;;;;;;12.20;99.00;;;;;;5071221;28;19912;-68
2023/01/01 07:36:18;;;;;;;;;;;12.20;99.00;;;;;;5089312;28;19918;-69
2023/01/01 07:38:44;;;;;;;;;;;12.20;99.00;;;;;;5088832;28;19916;-69
2023/01/01 07:41:09;;;;;;;;;;;12.20;99.00;;;;;;5088476;28;20006;-67
2023/01/01 07:43:35;;;;;;;;;;;12.20;99.00;;;;;;5089259;28;19908;-68
2023/01/01 07:46:00;;;;;;;;;;;12.10;98.90;;;;;;5089300;28;19908;-69
2023/01/01 07:48:26;;;;;;;;;;;12.20;99.10;;;;;;5071170;28;19991;-68
2023/01/01 07:50:52;;;;;;;;;;;12.10;99.00;;;;;;5088403;28;19965;-68
2023/01/01 07:53:17;;;;;;;;;;;12.10;99.10;;;;;;5088241;28;19942;-68
2023/01/01 07:55:44;;;;;;;;;;;12.10;99.00;;;;;;5088260;28;19914;-68
2023/01/01 07:58:10;;;;;;;;;;;12.10;99.10;;;;;;5088625;28;19912;-68
2023/01/01 08:00:36;;;;;;;;;;;12.10;99.20;;;;;;5088744;28;19908;-68
2023/01/01 08:03:01;;;;;;;;;;;12.10;99.20;;;;;;5088745;28;20579;-68
2023/01/01 08:05:27;;;;;;;;;;;12.10;99.20;;;;;;5088881;28;19912;-69
2023/01/01 08:07:52;;;;;;;;;;;12.10;99.20;;;;;;5088314;28;19912;-68
2023/01/01 08:10:21;;;;;;;;;;;12.10;99.30;;;;;;5070141;28;19999;-68
2023/01/01 08:12:46;;;;;;;;;;;12.10;99.30;;;;;;5086953;28;20380;-68
2023/01/01 08:15:12;;;;;;;;;;;12.10;99.20;;;;;;5085544;28;19934;-67
2023/01/01 08:17:39;;;;;;;;;;;12.00;99.30;;;;;;5087243;28;19923;-68
2023/01/01 08:20:05;;;;;;;;;;;12.00;99.30;;;;;;5087884;28;19934;-68
2023/01/01 08:22:30;;;;;;;;;;;12.00;99.30;;;;;;5087479;28;19912;-69
2023/01/01 08:24:55;;;;;;;;;;;12.00;99.30;;;;;;5086279;28;19919;-68
2023/01/01 08:27:21;;;;;;;;;;;12.00;99.30;;;;;;5087184;28;19912;-68
2023/01/01 08:29:46;;;;;;;;;;;12.00;99.40;;;;;;5068941;28;19912;-68
2023/01/01 08:32:12;;;;;;;;;;;12.00;99.40;;;;;;5087195;28;20616;-68
2023/01/01 08:34:37;;;;;;;;;;;12.00;99.40;;;;;;5087040;28;19967;-68
2023/01/01 08:37:03;;;;;;;;;;;12.00;99.40;;;;;;5069070;28;19943;-67
2023/01/01 08:39:29;;;;;;;;;;;11.90;99.30;;;;;;5087273;28;19916;-69
2023/01/01 08:41:54;;;;;;;;;;;12.00;99.30;;;;;;5087798;28;20603;-69
2023/01/01 08:44:20;;;;;;;;;;;12.00;99.30;;;;;;5088014;28;20003;-68
2023/01/01 08:46:45;;;;;;;;;;;12.00;99.40;;;;;;5087811;28;20258;-69
2023/01/01 08:49:11;;;;;;;;;;;12.00;99.30;;;;;;5069862;28;19908;-68
2023/01/01 08:51:36;;;;;;;;;;;11.90;99.30;;;;;;5085137;28;19950;-69
2023/01/01 08:54:02;;;;;;;;;;;12.00;99.30;;;;;;5082231;28;20275;-68
2023/01/01 08:56:27;;;;;;;;;;;11.90;99.30;;;;;;5087575;28;19918;-68
2023/01/01 08:58:53;;;;;;;;;;;11.90;99.30;;;;;;5087915;28;20281;-68
2023/01/01 09:01:20;;;;;;;;;;;12.00;99.30;;;;;;5087581;28;19908;-68
2023/01/01 09:03:46;;;;;;;;;;;12.00;99.30;;;;;;5087358;28;19912;-69
2023/01/01 09:06:12;;;;;;;;;;;11.90;99.30;;;;;;5087517;28;19973;-68
2023/01/01 09:08:37;;;;;;;;;;;12.00;99.30;;;;;;5087352;28;19916;-68
2023/01/01 09:11:03;;;;;;;;;;;12.00;99.30;;;;;;5086560;28;20323;-68
2023/01/01 09:13:29;;;;;;;;;;;11.90;99.20;;;;;;5086852;28;19920;-68
2023/01/01 09:15:55;;;;;;;;;;;12.00;99.50;;;;;;5080181;28;19913;-68
2023/01/01 09:18:21;;;;;;;;;;;12.00;99.30;;;;;;5084878;28;19927;-68
2023/01/01 09:20:46;;;;;;;;;;;12.00;99.20;;;;;;5086920;28;19912;-68
2023/01/01 09:23:12;;;;;;;;;;;12.00;99.30;;;;;;5087372;28;19919;-68
2023/01/01 09:25:37;;;;;;;;;;;12.00;99.20;;;;;;5087493;28;19912;-68
2023/01/01 09:28:04;;;;;;;;;;;12.00;99.20;;;;;;5086751;28;19920;-69
2023/01/01 09:30:30;;;;;;;;;;;12.00;99.30;;;;;;5085668;28;19962;-69
2023/01/01 09:32:55;;;;;;;;;;;12.00;99.20;;;;;;5086281;28;19908;-68
2023/01/01 09:35:21;;;;;;;;;;;12.00;99.20;;;;;;5087009;28;19908;-69
2023/01/01 09:37:46;;;;;;;;;;;12.00;99.20;;;;;;5085789;28;19985;-69
2023/01/01 09:40:27;;;;;;;;;;;12.10;99.20;;;;;;5086251;28;19916;-68
2023/01/01 09:43:01;;;;;;;;;;;12.00;99.20;;;;;;5067958;28;20027;-68
2023/01/01 09:45:27;;;;;;;;;;;12.10;99.40;;;;;;5086792;28;19912;-68
2023/01/01 09:48:02;;;;;;;;;;;12.10;99.20;;;;;;5086743;28;19925;-68
2023/01/01 09:50:36;;;;;;;;;;;12.10;99.20;;;;;;5086915;28;20364;-68
2023/01/01 09:53:24;;;;;;;;;;;12.10;99.20;;;;;;5080478;28;19987;-68
2023/01/01 09:55:50;;;;;;;;;;;12.10;99.30;;;;;;5071569;28;19976;-67
2023/01/01 09:58:17;;;;;;;;;;;12.10;99.20;;;;;;5086718;28;20596;-69
2023/01/01 10:00:45;;;;;;;;;;;12.10;99.30;;;;;;5086617;28;19965;-68
2023/01/01 10:03:25;;;;;;;;;;;12.10;99.30;;;;;;5087120;28;19995;-68
2023/01/01 10:05:59;;;;;;;;;;;12.10;99.30;;;;;;5085293;28;19920;-68
2023/01/01 10:08:43;;;;;;;;;;;12.10;99.40;;;;;;5085733;28;20024;-68
2023/01/01 10:11:14;;;;;;;;;;;12.10;99.30;;;;;;5084047;28;20315;-68
2023/01/01 10:13:41;;;;;;;;;;;12.10;99.40;;;;;;5065240;28;20432;-67
2023/01/01 10:16:26;;;;;;;;;;;12.10;99.40;;;;;;5085695;28;19919;-68
2023/01/01 10:18:54;;;;;;;;;;;12.10;99.20;;;;;;5085845;28;19995;-69
2023/01/01 10:21:22;;;;;;;;;;;12.10;99.30;;;;;;5085568;28;19912;-68
2023/01/01 10:23:53;;;;;;;;;;;12.10;99.20;;;;;;5085955;28;19912;-68
2023/01/01 10:26:22;;;;;;;;;;;12.20;99.30;;;;;;5085645;28;19916;-69
2023/01/01 10:28:47;;;;;;;;;;;12.10;99.30;;;;;;5085327;28;19920;-68
2023/01/01 10:31:14;;;;;;;;;;;12.10;99.30;;;;;;5066911;28;19918;-68
2023/01/01 10:33:40;;;;;;;;;;;12.20;99.20;;;;;;5085820;28;19919;-69
2023/01/01 10:36:08;;;;;;;;;;;12.20;99.20;;;;;;5084988;28;20383;-68
2023/01/01 10:38:34;;;;;;;;;;;12.20;99.10;;;;;;5085346;28;19916;-68
2023/01/01 10:41:06;;;;;;;;;;;12.20;99.20;;;;;;5084774;28;19923;-68
2023/01/01 10:43:32;;;;;;;;;;;12.20;99.10;;;;;;5085129;28;19916;-68
2023/01/01 10:45:59;;;;;;;;;;;12.20;99.10;;;;;;5085644;28;19994;-69
2023/01/01 10:48:25;;;;;;;;;;;12.20;99.10;;;;;;5087981;28;19912;-68
2023/01/01 10:51:00;;;;;;;;;;;12.20;99.10;;;;;;5088654;28;19923;-69
2023/01/01 10:53:32;;;;;;;;;;;12.20;99.10;;;;;;5087144;28;19919;-68
2023/01/01 10:55:59;;;;;;;;;;;12.20;99.10;;;;;;5086025;28;19919;-68
2023/01/01 10:58:40;;;;;;;;;;;12.30;99.00;;;;;;5088885;28;20312;-69
2023/01/01 11:01:07;;;;;;;;;;;12.30;99.10;;;;;;5088567;28;19922;-69
2023/01/01 11:03:32;;;;;;;;;;;12.30;99.00;;;;;;5083724;28;19912;-68
2023/01/01 11:05:59;;;;;;;;;;;12.30;99.00;;;;;;5068957;28;19934;-68
2023/01/01 11:08:25;;;;;;;;;;;12.30;99.00;;;;;;5068821;28;20327;-67
2023/01/01 11:10:50;;;;;;;;;;;12.40;99.10;;;;;;5068846;28;19909;-68
2023/01/01 11:13:19;;;;;;;;;;;12.30;99.10;;;;;;5068395;28;20620;-68
2023/01/01 11:15:45;;;;;;;;;;;12.40;99.10;;;;;;5068400;28;19917;-69
2023/01/01 11:18:34;;;;;;;;;;;12.40;99.00;;;;;;5068270;28;19913;-69
2023/01/01 11:21:01;;;;;;;;;;;12.40;99.00;;;;;;5068251;28;19947;-68
2023/01/01 11:23:35;;;;;;;;;;;12.40;99.00;;;;;;5068597;28;19912;-67
2023/01/01 11:26:23;;;;;;;;;;;12.40;99.00;;;;;;5050523;28;19913;-68
2023/01/01 11:28:59;;;;;;;;;;;12.40;99.10;;;;;;5088144;28;19920;-68
2023/01/01 11:31:26;;;;;;;;;;;12.40;99.10;;;;;;5086372;28;19918;-68
2023/01/01 11:33:53;;;;;;;;;;;12.40;99.20;;;;;;5087973;28;19920;-68
2023/01/01 11:36:24;;;;;;;;;;;12.40;99.20;;;;;;5087931;28;19962;-69
2023/01/01 11:39:01;;;;;;;;;;;12.50;99.10;;;;;;5088788;28;20077;-68
2023/01/01 11:41:27;;;;;;;;;;;12.50;99.00;;;;;;5088591;28;19955;-68
2023/01/01 11:43:52;;;;;;;;;;;12.50;99.00;;;;;;5088465;28;20137;-67
2023/01/01 11:46:22;;;;;;;;;;;12.50;99.00;;;;;;5086129;28;19912;-67
2023/01/01 11:48:48;;;;;;;;;;;12.50;99.00;;;;;;5087635;28;19912;-68
2023/01/01 11:51:30;;;;;;;;;;;12.50;99.20;;;;;;5087833;28;20281;-69
2023/01/01 11:54:09;;;;;;;;;;;12.50;99.10;;;;;;5063485;28;19908;-69
2023/01/01 11:56:35;;;;;;;;;;;12.50;99.10;;;;;;5088037;28;19912;-67
2023/01/01 11:59:11;;;;;;;;;;;12.50;99.00;;;;;;5086799;28;19930;-69
2023/01/01 12:01:47;;;;;;;;;;;12.50;99.10;;;;;;5087998;28;19955;-68
2023/01/01 12:04:51;;;;;;;;;;;12.50;99.10;;;;;;5087786;28;19939;-68
2023/01/01 12:07:20;;;;;;;;;;;12.50;99.10;;;;;;5024225;28;19913;-68
2023/01/01 12:09:46;;;;;;;;;;;12.50;99.20;;;;;;5024070;28;20397;-67
2023/01/01 12:12:14;;;;;;;;;;;12.60;99.10;;;;;;5054243;28;19952;-68
2023/01/01 12:15:02;;;;;;;;;;;12.50;99.10;;;;;;5087104;28;20261;-68
2023/01/01 12:17:27;;;;;;;;;;;12.50;99.10;;;;;;5086739;28;19965;-67
2023/01/01 12:19:56;;;;;;;;;;;12.60;99.20;;;;;;5087516;28;19916;-67
2023/01/01 12:22:22;;;;;;;;;;;12.60;99.20;;;;;;5087245;28;19916;-67
2023/01/01 12:24:48;;;;;;;;;;;12.50;99.10;;;;;;5087592;28;19912;-68
2023/01/01 12:27:23;;;;;;;;;;;12.50;99.00;;;;;;5087439;28;19923;-68
2023/01/01 12:30:00;;;;;;;;;;;12.60;99.10;;;;;;5087303;28;19951;-68
2023/01/01 12:32:26;;;;;;;;;;;12.60;99.10;;;;;;5087023;28;19919;-67
2023/01/01 12:34:57;;;;;;;;;;;12.60;99.10;;;;;;5070189;28;20610;-67
2023/01/01 12:37:35;;;;;;;;;;;12.60;99.10;;;;;;5066990;28;20408;-68
2023/01/01 12:40:19;;;;;;;;;;;12.60;99.10;;;;;;5066625;28;20026;-67
2023/01/01 12:42:49;;;;;;;;;;;12.60;99.10;;;;;;5066730;28;20532;-68
2023/01/01 12:45:22;;;;;;;;;;;12.60;99.10;;;;;;5066709;28;20049;-67
2023/01/01 12:47:54;;;;;;;;;;;12.60;99.10;;;;;;5066908;28;19912;-67
2023/01/01 12:50:20;;;;;;;;;;;12.60;99.10;;;;;;5083026;28;19912;-67
2023/01/01 12:52:45;;;;;;;;;;;12.60;99.00;;;;;;5079859;28;19919;-68
2023/01/01 12:55:29;;;;;;;;;;;12.60;99.00;;;;;;5080673;28;20418;-68
2023/01/01 12:58:09;;;;;;;;;;;12.60;99.10;;;;;;5084282;28;19965;-68
2023/01/01 13:00:40;;;;;;;;;;;12.60;99.00;;;;;;5085147;28;19912;-68
2023/01/01 13:03:13;;;;;;;;;;;12.60;99.10;;;;;;5084441;28;19956;-67
2023/01/01 13:05:41;;;;;;;;;;;12.60;99.10;;;;;;5085034;28;19943;-67
2023/01/01 13:08:07;;;;;;;;;;;12.60;99.10;;;;;;5085993;28;20733;-68
2023/01/01 13:10:33;;;;;;;;;;;12.60;99.00;;;;;;5085713;28;19943;-68
2023/01/01 13:12:59;;;;;;;;;;;12.60;99.00;;;;;;5085846;28;20446;-67
2023/01/01 13:15:37;;;;;;;;;;;12.60;99.00;;;;;;5086240;28;19912;-68
2023/01/01 13:18:23;;;;;;;;;;;12.60;99.00;;;;;;5066218;28;20576;-68
2023/01/01 13:20:56;;;;;;;;;;;12.60;99.10;;;;;;5083737;28;20022;-68
2023/01/01 13:23:27;;;;;;;;;;;12.60;99.10;;;;;;5083952;28;20441;-68
2023/01/01 13:26:11;;;;;;;;;;;12.60;99.10;;;;;;5086074;28;20685;-68
2023/01/01 13:28:37;;;;;;;;;;;12.50;99.00;;;;;;5083314;28;19965;-67
2023/01/01 13:31:02;;;;;;;;;;;12.60;99.10;;;;;;5085866;28;19916;-67
2023/01/01 13:33:30;;;;;;;;;;;12.60;99.20;;;;;;5083718;28;19919;-68
2023/01/01 13:36:09;;;;;;;;;;;12.50;99.20;;;;;;5082460;28;19916;-68
2023/01/01 13:38:47;;;;;;;;;;;12.60;99.30;;;;;;5085298;28;19920;-68
2023/01/01 13:41:25;;;;;;;;;;;12.60;99.30;;;;;;5085478;28;19916;-68
2023/01/01 13:43:51;;;;;;;;;;;12.60;99.30;;;;;;5084063;28;19935;-68
2023/01/01 13:46:17;;;;;;;;;;;12.50;99.40;;;;;;5085408;28;20409;-67
2023/01/01 13:48:46;;;;;;;;;;;12.50;99.40;;;;;;5086149;28;19999;-68
2023/01/01 13:51:11;;;;;;;;;;;12.50;99.40;;;;;;5085952;28;19908;-68
2023/01/01 13:53:53;;;;;;;;;;;12.50;99.40;;;;;;5079129;28;19912;-68
2023/01/01 13:56:19;;;;;;;;;;;12.50;99.40;;;;;;5085849;28;19912;-67
2023/01/01 13:58:59;;;;;;;;;;;12.50;99.40;;;;;;5085575;28;19956;-68
2023/01/01 14:01:43;;;;;;;;;;;12.50;99.40;;;;;;5085528;28;19915;-68
2023/01/01 14:04:30;;;;;;;;;;;12.50;99.40;;;;;;5075423;28;20019;-68
2023/01/01 14:06:56;;;;;;;;;;;12.50;99.50;;;;;;5066283;28;19908;-68
2023/01/01 14:09:22;;;;;;;;;;;12.50;99.50;;;;;;5084710;28;19926;-68
2023/01/01 14:11:48;;;;;;;;;;;12.40;99.50;;;;;;5086097;28;19912;-68
2023/01/01 14:14:27;;;;;;;;;;;12.40;99.50;;;;;;5085533;28;19920;-68
2023/01/01 14:16:55;;;;;;;;;;;12.40;99.50;;;;;;5070375;28;19958;-68
2023/01/01 14:19:22;;;;;;;;;;;12.40;99.60;;;;;;5064551;28;20415;-68
2023/01/01 14:21:47;;;;;;;;;;;12.40;99.60;;;;;;5065453;28;19966;-68
2023/01/01 14:24:15;;;;;;;;;;;12.40;99.70;;;;;;5050884;28;19912;-68
2023/01/01 14:26:40;;;;;;;;;;;12.40;99.60;;;;;;5069472;28;19912;-70
2023/01/01 14:29:07;;;;;;;;;;;12.40;99.70;;;;;;5069565;28;19958;-68
2023/01/01 14:31:39;;;;;;;;;;;12.40;99.80;;;;;;5080045;28;19989;-69
2023/01/01 14:34:14;;;;;;;;;;;12.40;99.70;;;;;;5090148;28;19912;-68